createdAt,value
2016-09-12T00:00:12.967Z,17.72
2016-09-12T00:01:13.134Z,17.70
2016-09-12T00:02:19.368Z,17.71
2016-09-12T00:03:12.853Z,17.72
2016-09-12T00:04:17.538Z,17.71
2016-09-12T00:05:14.117Z,17.67
2016-09-12T00:06:12.892Z,17.63
2016-09-12T00:07:18.871Z,17.65
2016-09-12T00:08:19.103Z,17.64
2016-09-12T00:09:14.255Z,17.69
2016-09-12T00:10:15.992Z,17.68
2016-09-12T00:11:19.403Z,17.65
2016-09-12T00:12:13.427Z,17.61
2016-09-12T00:15:14.112Z,17.64
2016-09-12T00:16:13.522Z,17.66
2016-09-12T00:17:16.903Z,17.69
2016-09-12T00:18:17.695Z,17.67
2016-09-12T00:19:26.201Z,17.68
2016-09-12T00:20:14.495Z,17.66
2016-09-12T00:21:19.517Z,17.65
2016-09-12T00:22:18.610Z,17.64
2016-09-12T00:23:20.902Z,17.60
2016-09-12T00:24:21.155Z,17.57
2016-09-12T00:25:16.591Z,17.58
2016-09-12T00:26:19.410Z,17.56
2016-09-12T00:27:27.805Z,17.54
2016-09-12T00:29:19.518Z,17.49
2016-09-12T00:30:14.620Z,17.52
2016-09-12T00:31:18.491Z,17.52
2016-09-12T00:32:30.932Z,17.50
2016-09-12T00:34:14.372Z,17.41
2016-09-12T00:35:13.883Z,17.48
2016-09-12T00:36:18.978Z,17.47
2016-09-12T00:37:25.749Z,17.47
2016-09-12T00:38:25.616Z,17.46
2016-09-12T00:39:14.198Z,17.38
2016-09-12T00:40:13.836Z,17.44
2016-09-12T00:41:19.476Z,17.49
2016-09-12T00:42:14.022Z,17.50
2016-09-12T00:43:20.734Z,17.42
2016-09-12T00:44:11.243Z,17.41
2016-09-12T00:45:21.443Z,17.37
2016-09-12T00:46:12.628Z,17.33
2016-09-12T00:47:20.515Z,17.35
2016-09-12T00:48:18.907Z,17.31
2016-09-12T00:49:20.887Z,17.29
2016-09-12T00:50:16.746Z,17.29
2016-09-12T00:52:22.526Z,17.29
2016-09-12T00:53:22.918Z,17.27
2016-09-12T00:54:28.481Z,17.32
2016-09-12T00:55:25.903Z,17.34
2016-09-12T00:56:14.211Z,17.36
2016-09-12T00:57:19.024Z,17.37
2016-09-12T00:58:14.372Z,17.36
2016-09-12T00:59:19.267Z,17.35
2016-09-12T01:00:14.611Z,17.40
2016-09-12T01:01:32.694Z,17.37
2016-09-12T01:02:26.036Z,17.36
2016-09-12T01:03:19.436Z,17.36
2016-09-12T01:04:19.283Z,17.37
2016-09-12T01:05:33.001Z,17.28
2016-09-12T01:06:18.905Z,17.22
2016-09-12T01:07:19.733Z,17.16
2016-09-12T01:08:13.942Z,17.22
2016-09-12T01:09:16.550Z,17.24
2016-09-12T01:10:26.054Z,17.19
2016-09-12T01:11:30.817Z,17.20
2016-09-12T01:12:28.178Z,17.12
2016-09-12T01:13:27.394Z,17.16
2016-09-12T01:14:21.273Z,17.03
2016-09-12T01:15:26.736Z,17.05
2016-09-12T01:16:20.794Z,17.03
2016-09-12T01:17:27.460Z,16.97
2016-09-12T01:18:22.288Z,16.97
2016-09-12T01:19:20.862Z,16.93
2016-09-12T01:20:11.598Z,16.95
2016-09-12T01:21:16.668Z,16.92
2016-09-12T01:22:20.668Z,16.92
2016-09-12T01:23:26.924Z,16.97
2016-09-12T01:24:22.304Z,16.95
2016-09-12T01:25:27.291Z,16.99
2016-09-12T01:26:20.065Z,16.98
2016-09-12T01:27:17.897Z,16.98
2016-09-12T01:28:22.687Z,16.95
2016-09-12T01:29:12.495Z,16.94
2016-09-12T01:30:14.744Z,16.89
2016-09-12T01:31:14.624Z,16.85
2016-09-12T01:32:25.549Z,16.87
2016-09-12T01:33:21.024Z,16.93
2016-09-12T01:34:17.927Z,16.84
2016-09-12T01:35:14.349Z,16.87
2016-09-12T01:36:24.558Z,16.85
2016-09-12T01:37:14.886Z,16.87
2016-09-12T01:38:22.380Z,16.83
2016-09-12T01:39:15.967Z,16.86
2016-09-12T01:40:18.625Z,16.89
2016-09-12T01:41:14.000Z,16.82
2016-09-12T01:42:34.099Z,16.77
2016-09-12T01:43:18.908Z,16.80
2016-09-12T01:44:18.424Z,16.71
2016-09-12T01:45:21.857Z,16.75
2016-09-12T01:46:19.143Z,16.75
2016-09-12T01:47:26.695Z,16.81
2016-09-12T01:48:20.423Z,16.79
2016-09-12T01:49:23.624Z,16.78
2016-09-12T01:50:23.635Z,16.77
2016-09-12T01:51:13.676Z,16.79
2016-09-12T01:52:18.912Z,16.84
2016-09-12T01:53:13.895Z,16.75
2016-09-12T01:54:22.294Z,16.73
2016-09-12T01:55:16.435Z,16.80
2016-09-12T01:56:19.787Z,16.75
2016-09-12T01:57:23.749Z,16.73
2016-09-12T01:58:21.511Z,16.70
2016-09-12T02:00:17.337Z,16.62
2016-09-12T02:01:21.467Z,16.71
2016-09-12T02:02:18.214Z,16.67
2016-09-12T02:03:21.155Z,16.66
2016-09-12T02:04:16.684Z,16.64
2016-09-12T02:05:21.557Z,16.66
2016-09-12T02:06:14.988Z,16.66
2016-09-12T02:07:20.530Z,16.61
2016-09-12T02:08:22.367Z,16.61
2016-09-12T02:09:20.527Z,16.58
2016-09-12T02:10:16.998Z,16.56
2016-09-12T02:11:17.091Z,16.65
2016-09-12T02:12:23.230Z,16.58
2016-09-12T02:13:13.424Z,16.61
2016-09-12T02:14:20.797Z,16.63
2016-09-12T02:15:14.038Z,16.66
2016-09-12T02:16:19.040Z,16.66
2016-09-12T02:17:24.049Z,16.66
2016-09-12T02:18:16.995Z,16.66
2016-09-12T02:19:21.044Z,16.57
2016-09-12T02:20:20.946Z,16.52
2016-09-12T02:21:18.953Z,16.51
2016-09-12T02:22:21.272Z,16.46
2016-09-12T02:23:14.400Z,16.53
2016-09-12T02:24:15.049Z,16.49
2016-09-12T02:25:14.121Z,16.50
2016-09-12T02:26:16.765Z,16.55
2016-09-12T02:27:23.871Z,16.60
2016-09-12T02:28:22.199Z,16.50
2016-09-12T02:29:17.237Z,16.48
2016-09-12T02:30:26.155Z,16.48
2016-09-12T02:32:18.767Z,16.52
2016-09-12T02:33:20.690Z,16.50
2016-09-12T02:34:14.363Z,16.51
2016-09-12T02:35:18.442Z,16.51
2016-09-12T02:36:18.983Z,16.57
2016-09-12T02:37:15.672Z,16.51
2016-09-12T02:38:23.893Z,16.49
2016-09-12T02:39:13.872Z,16.45
2016-09-12T02:40:21.158Z,16.47
2016-09-12T02:41:13.529Z,16.46
2016-09-12T02:42:21.126Z,16.43
2016-09-12T02:43:22.564Z,16.46
2016-09-12T02:44:19.426Z,16.46
2016-09-12T02:45:13.521Z,16.51
2016-09-12T02:46:23.096Z,16.55
2016-09-12T02:47:13.603Z,16.58
2016-09-12T02:48:19.228Z,16.55
2016-09-12T02:49:21.365Z,16.51
2016-09-12T02:50:14.872Z,16.49
2016-09-12T02:51:19.123Z,16.43
2016-09-12T02:52:14.463Z,16.39
2016-09-12T02:53:21.239Z,16.37
2016-09-12T02:54:18.916Z,16.39
2016-09-12T02:55:16.503Z,16.43
2016-09-12T02:56:17.192Z,16.35
2016-09-12T02:57:26.278Z,16.39
2016-09-12T02:58:28.590Z,16.38
2016-09-12T02:59:19.609Z,16.32
2016-09-12T03:00:16.532Z,16.36
2016-09-12T03:01:14.367Z,16.37
2016-09-12T03:02:19.565Z,16.41
2016-09-12T03:03:23.578Z,16.39
2016-09-12T03:04:18.632Z,16.36
2016-09-12T03:05:20.776Z,16.32
2016-09-12T03:06:21.943Z,16.34
2016-09-12T03:08:17.351Z,16.31
2016-09-12T03:09:17.564Z,16.32
2016-09-12T03:10:26.080Z,16.33
2016-09-12T03:11:13.711Z,16.34
2016-09-12T03:12:22.256Z,16.38
2016-09-12T03:13:19.423Z,16.31
2016-09-12T03:15:19.117Z,16.27
2016-09-12T03:16:19.095Z,16.29
2016-09-12T03:17:13.169Z,16.30
2016-09-12T03:18:21.042Z,16.27
2016-09-12T03:19:22.024Z,16.23
2016-09-12T03:20:22.733Z,16.27
2016-09-12T03:21:10.584Z,16.30
2016-09-12T03:22:25.695Z,16.29
2016-09-12T03:23:23.192Z,16.30
2016-09-12T03:24:21.235Z,16.21
2016-09-12T03:25:19.504Z,16.14
2016-09-12T03:26:20.869Z,16.22
2016-09-12T03:27:21.178Z,16.27
2016-09-12T03:28:23.185Z,16.28
2016-09-12T03:29:31.840Z,16.25
2016-09-12T03:30:45.041Z,16.30
2016-09-12T03:31:21.412Z,16.30
2016-09-12T03:32:19.143Z,16.24
2016-09-12T03:33:15.234Z,16.28
2016-09-12T03:34:14.759Z,16.20
2016-09-12T03:35:19.686Z,16.07
2016-09-12T03:36:19.121Z,16.05
2016-09-12T03:37:13.851Z,16.12
2016-09-12T03:38:18.848Z,16.17
2016-09-12T03:39:23.241Z,16.07
2016-09-12T03:40:16.545Z,16.00
2016-09-12T03:41:11.666Z,16.06
2016-09-12T03:42:19.600Z,16.01
2016-09-12T03:43:26.789Z,16.01
2016-09-12T03:44:12.350Z,15.96
2016-09-12T03:46:17.309Z,16.02
2016-09-12T03:47:22.285Z,16.03
2016-09-12T03:48:22.197Z,16.04
2016-09-12T03:49:22.398Z,16.03
2016-09-12T03:50:23.672Z,15.92
2016-09-12T03:51:13.980Z,15.95
2016-09-12T03:52:28.597Z,15.88
2016-09-12T03:53:19.340Z,15.89
2016-09-12T03:54:22.715Z,15.92
2016-09-12T03:55:18.977Z,15.91
2016-09-12T03:56:13.498Z,15.92
2016-09-12T03:57:19.617Z,15.88
2016-09-12T03:58:17.350Z,15.85
2016-09-12T03:59:14.445Z,15.87
2016-09-12T04:00:22.405Z,15.90
2016-09-12T04:01:27.034Z,15.93
2016-09-12T04:02:33.475Z,15.95
2016-09-12T04:03:14.183Z,16.00
2016-09-12T04:04:18.803Z,16.00
2016-09-12T04:05:16.755Z,15.91
2016-09-12T04:06:27.568Z,15.88
2016-09-12T04:07:18.950Z,15.94
2016-09-12T04:08:23.762Z,15.91
2016-09-12T04:09:17.035Z,15.90
2016-09-12T04:10:19.198Z,15.83
2016-09-12T04:11:14.935Z,15.91
2016-09-12T04:12:19.356Z,15.92
2016-09-12T04:13:24.151Z,15.93
2016-09-12T04:14:16.857Z,15.85
2016-09-12T04:15:26.200Z,15.91
2016-09-12T04:16:26.539Z,15.95
2016-09-12T04:17:19.398Z,15.94
2016-09-12T04:18:15.441Z,15.94
2016-09-12T04:19:23.137Z,15.94
2016-09-12T04:20:44.353Z,15.87
2016-09-12T04:21:23.211Z,15.87
2016-09-12T04:22:39.596Z,15.91
2016-09-12T04:23:22.977Z,15.90
2016-09-12T04:24:18.881Z,15.88
2016-09-12T04:25:20.573Z,15.84
2016-09-12T04:26:19.756Z,15.86
2016-09-12T04:27:22.909Z,15.89
2016-09-12T04:28:26.303Z,15.85
2016-09-12T04:29:17.130Z,15.81
2016-09-12T04:30:22.118Z,15.75
2016-09-12T04:31:11.799Z,15.81
2016-09-12T04:32:28.107Z,15.83
2016-09-12T04:33:38.050Z,15.77
2016-09-12T04:34:21.388Z,15.80
2016-09-12T04:35:13.463Z,15.79
2016-09-12T04:36:27.155Z,15.83
2016-09-12T04:37:13.228Z,15.79
2016-09-12T04:38:17.011Z,15.81
2016-09-12T04:39:18.858Z,15.85
2016-09-12T04:40:23.170Z,15.85
2016-09-12T04:42:23.594Z,15.78
2016-09-12T04:43:26.688Z,15.80
2016-09-12T04:44:13.064Z,15.80
2016-09-12T04:45:13.163Z,15.78
2016-09-12T04:46:13.978Z,15.84
2016-09-12T04:47:22.016Z,15.81
2016-09-12T04:48:18.659Z,15.82
2016-09-12T04:49:22.931Z,15.78
2016-09-12T04:50:18.909Z,15.72
2016-09-12T04:52:20.440Z,15.73
2016-09-12T04:53:26.638Z,15.76
2016-09-12T04:54:20.972Z,15.72
2016-09-12T04:55:27.382Z,15.74
2016-09-12T04:56:26.652Z,15.71
2016-09-12T04:57:15.176Z,15.77
2016-09-12T04:58:17.446Z,15.79
2016-09-12T04:59:21.618Z,15.78
2016-09-12T05:01:16.918Z,15.76
2016-09-12T05:02:23.197Z,15.73
2016-09-12T05:03:19.516Z,15.75
2016-09-12T05:04:14.922Z,15.75
2016-09-12T05:05:23.551Z,15.73
2016-09-12T05:06:23.002Z,15.76
2016-09-12T05:07:20.871Z,15.74
2016-09-12T05:08:19.969Z,15.65
2016-09-12T05:09:24.088Z,15.74
2016-09-12T05:10:12.737Z,15.73
2016-09-12T05:11:23.616Z,15.80
2016-09-12T05:12:14.402Z,15.84
2016-09-12T05:13:18.674Z,15.81
2016-09-12T05:14:28.056Z,15.86
2016-09-12T05:18:08.675Z,15.92
2016-09-12T05:19:07.895Z,15.93
2016-09-12T05:20:17.420Z,15.85
2016-09-12T05:21:22.477Z,15.83
2016-09-12T05:22:28.180Z,15.91
2016-09-12T05:23:26.854Z,15.89
2016-09-12T05:24:18.487Z,15.91
2016-09-12T05:25:23.294Z,15.93
2016-09-12T05:26:42.162Z,15.94
2016-09-12T05:27:25.781Z,15.98
2016-09-12T05:28:19.107Z,16.00
2016-09-12T05:29:28.281Z,16.04
2016-09-12T05:30:19.264Z,16.01
2016-09-12T05:31:14.324Z,16.01
2016-09-12T05:32:32.798Z,16.01
2016-09-12T05:33:20.062Z,16.01
2016-09-12T05:34:32.925Z,16.00
2016-09-12T05:36:14.445Z,15.98
2016-09-12T05:37:19.043Z,15.99
2016-09-12T05:38:19.316Z,15.95
2016-09-12T05:39:12.174Z,15.98
2016-09-12T05:40:17.780Z,16.02
2016-09-12T05:41:21.113Z,15.95
2016-09-12T05:42:16.808Z,15.99
2016-09-12T05:43:14.980Z,16.02
2016-09-12T05:44:21.510Z,15.99
2016-09-12T05:45:21.159Z,15.99
2016-09-12T05:46:11.991Z,16.01
2016-09-12T05:47:21.613Z,16.02
2016-09-12T05:48:18.509Z,15.99
2016-09-12T05:49:14.689Z,16.02
2016-09-12T05:50:27.108Z,16.05
2016-09-12T05:51:21.508Z,16.11
2016-09-12T05:52:27.010Z,16.14
2016-09-12T05:53:18.863Z,16.15
2016-09-12T05:54:28.667Z,16.15
2016-09-12T05:55:18.890Z,16.16
2016-09-12T05:56:14.038Z,16.19
2016-09-12T05:57:21.261Z,16.15
2016-09-12T05:58:12.087Z,16.18
2016-09-12T05:59:19.201Z,16.21
2016-09-12T06:00:18.391Z,16.24
2016-09-12T06:01:21.501Z,16.22
2016-09-12T06:02:23.207Z,16.21
2016-09-12T06:03:13.986Z,16.24
2016-09-12T06:04:15.037Z,16.24
2016-09-12T06:05:23.049Z,16.30
2016-09-12T06:06:17.249Z,16.35
2016-09-12T06:07:12.813Z,16.37
2016-09-12T06:08:19.584Z,16.37
2016-09-12T06:09:22.729Z,16.38
2016-09-12T06:10:21.716Z,16.41
2016-09-12T06:12:15.900Z,16.39
2016-09-12T06:14:23.646Z,16.43
2016-09-12T06:15:15.121Z,16.51
2016-09-12T06:16:12.696Z,16.54
2016-09-12T06:17:14.213Z,16.47
2016-09-12T06:18:18.970Z,16.51
2016-09-12T06:19:14.418Z,16.53
2016-09-12T06:20:18.906Z,16.52
2016-09-12T06:21:15.587Z,16.55
2016-09-12T06:23:48.742Z,16.53
2016-09-12T06:23:58.939Z,16.63
2016-09-12T06:24:28.239Z,16.61
2016-09-12T06:25:17.247Z,16.62
2016-09-12T06:26:18.005Z,16.69
2016-09-12T06:27:14.400Z,16.64
2016-09-12T06:28:18.805Z,16.57
2016-09-12T06:29:23.208Z,16.55
2016-09-12T06:30:12.523Z,16.57
2016-09-12T06:31:13.244Z,16.61
2016-09-12T06:32:21.489Z,16.66
2016-09-12T06:33:19.042Z,16.72
2016-09-12T06:34:15.587Z,16.75
2016-09-12T06:35:19.389Z,16.74
2016-09-12T06:36:21.195Z,16.72
2016-09-12T06:37:14.018Z,16.78
2016-09-12T06:38:23.514Z,16.75
2016-09-12T06:39:27.304Z,16.83
2016-09-12T06:40:21.838Z,16.82
2016-09-12T06:43:31.300Z,16.98
2016-09-12T06:48:54.077Z,17.04
2016-09-12T06:58:55.351Z,17.30
2016-09-12T07:03:26.806Z,17.37
2016-09-12T07:04:08.441Z,17.49
2016-09-12T07:06:01.091Z,17.10
2016-09-12T07:06:01.110Z,17.40
2016-09-12T07:06:24.455Z,17.27
2016-09-12T07:06:24.492Z,17.43
2016-09-12T07:10:40.286Z,17.78
2016-09-12T07:30:59.432Z,17.84
2016-09-12T07:30:59.761Z,18.58
2016-09-12T12:48:28.066Z,26.01
2016-09-12T12:49:28.308Z,26.08
2016-09-12T12:51:19.979Z,26.07
2016-09-12T12:53:12.409Z,26.09
2016-09-12T12:54:23.850Z,26.18
2016-09-12T12:55:25.258Z,26.29
2016-09-12T12:57:11.735Z,26.27
2016-09-12T12:58:12.293Z,26.33
2016-09-12T12:59:23.566Z,26.40
2016-09-12T13:00:19.473Z,26.45
2016-09-12T13:01:28.175Z,26.49
2016-09-12T13:02:14.348Z,26.54
2016-09-12T13:03:12.526Z,26.70
2016-09-12T13:04:26.688Z,26.76
2016-09-12T13:06:25.067Z,26.81
2016-09-12T13:07:25.422Z,26.89
2016-09-12T13:09:12.625Z,26.99
2016-09-12T13:12:25.354Z,26.97
2016-09-12T13:13:13.061Z,27.12
2016-09-12T13:14:12.186Z,27.27
2016-09-12T13:15:26.225Z,27.28
2016-09-12T13:17:12.072Z,27.11
2016-09-12T13:18:26.469Z,27.06
2016-09-12T13:20:28.663Z,27.01
2016-09-12T13:21:12.124Z,27.22
2016-09-12T13:22:25.865Z,27.15
2016-09-12T13:24:25.829Z,26.96
2016-09-12T13:25:25.191Z,26.89
2016-09-12T13:26:26.425Z,26.87
2016-09-12T13:27:22.636Z,26.89
2016-09-12T13:28:20.059Z,26.75
2016-09-12T13:30:22.588Z,26.71
2016-09-12T13:31:22.471Z,26.63
2016-09-12T13:32:22.709Z,26.60
2016-09-12T13:33:28.704Z,26.58
2016-09-12T13:34:22.845Z,26.59
2016-09-12T13:35:22.185Z,26.55
2016-09-12T13:36:25.635Z,26.53
2016-09-12T13:37:25.071Z,26.52
2016-09-12T13:38:23.838Z,26.49
2016-09-12T13:39:23.064Z,26.52
2016-09-12T13:40:12.171Z,26.47
2016-09-12T13:41:25.675Z,26.41
2016-09-12T13:42:12.809Z,26.39
2016-09-12T13:43:22.840Z,26.38
2016-09-12T13:45:22.544Z,26.38
2016-09-12T13:46:19.604Z,26.33
2016-09-12T13:47:22.693Z,26.29
2016-09-12T13:48:22.868Z,26.34
2016-09-12T13:49:12.041Z,26.31
2016-09-12T13:50:25.351Z,26.30
2016-09-12T13:51:25.476Z,26.31
2016-09-12T13:52:11.631Z,26.29
2016-09-12T13:53:25.000Z,26.21
2016-09-12T13:54:13.165Z,26.20
2016-09-12T13:55:25.476Z,26.29
2016-09-12T13:56:19.942Z,26.27
2016-09-12T13:57:11.940Z,26.22
2016-09-12T13:58:25.324Z,26.27
2016-09-12T13:59:13.251Z,26.24
2016-09-12T14:00:22.138Z,26.25
2016-09-12T14:01:22.825Z,26.27
2016-09-12T14:02:26.227Z,26.28
2016-09-12T14:03:22.664Z,26.24
2016-09-12T14:04:25.784Z,26.28
2016-09-12T14:05:25.167Z,26.33
2016-09-12T14:06:23.286Z,26.39
2016-09-12T14:07:19.737Z,26.30
2016-09-12T14:08:25.558Z,26.27
2016-09-12T14:09:13.349Z,26.25
2016-09-12T14:10:12.547Z,26.24
2016-09-12T14:11:24.327Z,26.19
2016-09-12T14:12:19.850Z,26.20
2016-09-12T14:13:24.923Z,26.24
2016-09-12T14:14:12.839Z,26.19
2016-09-12T14:15:19.052Z,26.22
2016-09-12T14:16:23.170Z,26.19
2016-09-12T14:17:25.570Z,26.24
2016-09-12T14:18:26.313Z,26.24
2016-09-12T14:19:24.432Z,26.23
2016-09-12T14:20:23.478Z,26.25
2016-09-12T14:21:11.858Z,26.29
2016-09-12T14:22:22.886Z,26.32
2016-09-12T14:23:22.896Z,26.31
2016-09-12T14:24:22.938Z,26.34
2016-09-12T14:25:19.433Z,26.33
2016-09-12T14:26:23.274Z,26.29
2016-09-12T14:27:25.787Z,26.30
2016-09-12T14:28:25.608Z,26.29
2016-09-12T14:29:25.952Z,26.23
2016-09-12T14:30:11.610Z,26.22
2016-09-12T14:32:28.670Z,26.23
2016-09-12T14:33:25.147Z,26.21
2016-09-12T14:36:23.262Z,26.30
2016-09-12T14:37:25.453Z,26.27
2016-09-12T14:39:19.731Z,26.27
2016-09-12T14:42:22.841Z,26.27
2016-09-12T14:43:13.424Z,26.26
2016-09-12T14:44:19.756Z,26.22
2016-09-12T14:45:25.959Z,26.27
2016-09-12T14:46:12.417Z,26.24
2016-09-12T14:47:11.521Z,26.20
2016-09-12T14:48:25.955Z,26.17
2016-09-12T14:49:12.559Z,26.23
2016-09-12T14:51:26.517Z,26.22
2016-09-12T14:52:18.536Z,26.18
2016-09-12T14:53:12.068Z,26.23
2016-09-12T14:54:11.936Z,26.19
2016-09-12T14:55:12.171Z,26.13
2016-09-12T14:56:25.007Z,26.07
2016-09-12T14:58:12.239Z,26.07
2016-09-12T15:01:22.834Z,26.14
2016-09-12T15:02:25.278Z,26.16
2016-09-12T15:06:25.517Z,26.23
2016-09-12T15:07:24.970Z,26.36
2016-09-12T15:08:24.976Z,26.36
2016-09-12T15:09:13.166Z,26.32
2016-09-12T15:10:14.278Z,26.30
2016-09-12T15:11:23.116Z,26.28
2016-09-12T15:12:12.555Z,26.28
2016-09-12T15:13:11.687Z,26.26
2016-09-12T15:14:12.522Z,26.25
2016-09-12T15:15:11.892Z,26.25
2016-09-12T15:16:22.973Z,26.22
2016-09-12T15:17:23.248Z,26.19
2016-09-12T15:18:20.047Z,26.24
2016-09-12T15:20:22.972Z,26.26
2016-09-12T15:21:23.340Z,26.24
2016-09-12T15:22:12.297Z,26.21
2016-09-12T15:23:22.999Z,26.23
2016-09-12T15:24:25.941Z,26.21
2016-09-12T15:26:25.991Z,26.18
2016-09-12T15:27:26.305Z,26.17
2016-09-12T15:29:25.849Z,26.18
2016-09-12T15:30:25.826Z,26.20
2016-09-12T15:31:26.227Z,26.17
2016-09-12T15:32:26.210Z,26.17
2016-09-12T15:33:26.183Z,26.14
2016-09-12T15:34:25.159Z,26.12
2016-09-12T15:35:24.910Z,26.14
2016-09-12T15:36:12.074Z,26.16
2016-09-12T15:37:25.551Z,26.15
2016-09-12T15:38:25.470Z,26.17
2016-09-12T15:39:25.623Z,26.22
2016-09-12T15:40:25.027Z,26.20
2016-09-12T15:41:23.155Z,26.18
2016-09-12T15:42:11.827Z,26.20
2016-09-12T15:43:12.659Z,26.18
2016-09-12T15:44:25.013Z,26.19
2016-09-12T15:45:26.288Z,26.20
2016-09-12T15:46:22.976Z,26.23
2016-09-12T15:47:12.214Z,26.25
2016-09-12T15:48:25.613Z,26.28
2016-09-12T15:49:22.890Z,26.30
2016-09-12T15:50:26.279Z,26.26
2016-09-12T15:51:13.266Z,26.33
2016-09-12T15:52:23.317Z,26.31
2016-09-12T15:53:23.285Z,26.28
2016-09-12T15:54:23.390Z,26.29
2016-09-12T15:55:23.371Z,26.31
2016-09-12T15:56:12.836Z,26.31
2016-09-12T15:57:21.334Z,26.30
2016-09-12T15:58:26.649Z,26.27
2016-09-12T15:59:25.003Z,26.25
2016-09-12T16:00:12.572Z,26.20
2016-09-12T16:01:24.814Z,26.15
2016-09-12T16:03:26.761Z,26.07
2016-09-12T16:04:25.650Z,26.03
2016-09-12T16:05:12.222Z,26.02
2016-09-12T16:06:12.423Z,25.95
2016-09-12T16:07:11.746Z,25.89
2016-09-12T16:08:24.524Z,25.85
2016-09-12T16:09:24.839Z,25.82
2016-09-12T16:10:19.245Z,25.79
2016-09-12T16:11:26.034Z,25.77
2016-09-12T16:12:26.538Z,25.72
2016-09-12T16:13:24.953Z,25.69
2016-09-12T16:14:27.394Z,25.67
2016-09-12T16:15:25.474Z,25.62
2016-09-12T16:16:23.440Z,25.58
2016-09-12T16:17:24.920Z,25.57
2016-09-12T16:18:23.350Z,25.57
2016-09-12T16:20:12.660Z,25.53
2016-09-12T16:21:11.948Z,25.49
2016-09-12T16:23:24.234Z,25.41
2016-09-12T16:24:23.333Z,25.36
2016-09-12T16:25:25.694Z,25.35
2016-09-12T16:26:21.471Z,25.30
2016-09-12T16:27:25.885Z,25.28
2016-09-12T16:28:12.321Z,25.25
2016-09-12T16:29:12.526Z,25.21
2016-09-12T16:30:12.562Z,25.16
2016-09-12T16:31:24.979Z,25.09
2016-09-12T16:32:12.103Z,25.06
2016-09-12T16:33:11.867Z,25.04
2016-09-12T16:34:12.533Z,25.04
2016-09-12T16:35:22.488Z,25.00
2016-09-12T16:36:24.779Z,24.97
2016-09-12T16:37:12.898Z,24.96
2016-09-12T16:38:24.761Z,24.96
2016-09-12T16:39:23.408Z,24.95
2016-09-12T16:41:23.849Z,24.95
2016-09-12T16:43:13.635Z,24.95
2016-09-12T16:44:26.359Z,24.96
2016-09-12T16:45:12.571Z,24.94
2016-09-12T16:46:28.915Z,24.89
2016-09-12T16:47:12.046Z,24.84
2016-09-12T16:48:26.046Z,24.79
2016-09-12T16:49:25.123Z,24.75
2016-09-12T16:51:12.004Z,24.69
2016-09-12T16:52:24.840Z,24.67
2016-09-12T16:53:24.239Z,24.67
2016-09-12T16:54:19.446Z,24.66
2016-09-12T16:55:26.724Z,24.65
2016-09-12T16:56:12.175Z,24.61
2016-09-12T16:57:25.367Z,24.59
2016-09-12T16:58:25.714Z,24.53
2016-09-12T16:59:12.025Z,24.50
2016-09-12T17:00:11.850Z,24.46
2016-09-12T17:01:26.411Z,24.41
2016-09-12T17:02:12.622Z,24.39
2016-09-12T17:03:24.262Z,24.34
2016-09-12T17:04:26.717Z,24.29
2016-09-12T17:05:26.686Z,24.23
2016-09-12T17:07:26.013Z,24.13
2016-09-12T17:08:24.723Z,24.07
2016-09-12T17:09:23.675Z,24.06
2016-09-12T17:10:25.672Z,23.99
2016-09-12T17:11:25.484Z,23.97
2016-09-12T17:12:26.468Z,23.98
2016-09-12T17:13:22.685Z,23.98
2016-09-12T17:15:25.722Z,23.96
2016-09-12T17:17:12.364Z,23.92
2016-09-12T17:20:12.422Z,23.84
2016-09-12T17:21:25.713Z,23.77
2016-09-12T17:22:25.121Z,23.76
2016-09-12T17:23:24.410Z,23.73
2016-09-12T17:25:17.380Z,23.67
2016-09-12T17:26:19.671Z,23.64
2016-09-12T17:28:22.964Z,23.56
2016-09-12T17:29:25.418Z,23.52
2016-09-12T17:30:13.004Z,23.48
2016-09-12T17:31:25.744Z,23.44
2016-09-12T17:32:25.627Z,23.36
2016-09-12T17:33:12.410Z,23.37
2016-09-12T17:34:12.022Z,23.32
2016-09-12T17:35:19.006Z,23.25
2016-09-12T17:36:28.790Z,23.20
2016-09-12T17:37:11.654Z,23.14
2016-09-12T17:38:12.264Z,23.10
2016-09-12T17:39:25.117Z,23.04
2016-09-12T17:40:54.296Z,23.03
2016-09-12T17:41:16.521Z,22.98
2016-09-12T17:42:23.008Z,22.95
2016-09-12T17:43:25.456Z,22.89
2016-09-12T17:44:22.542Z,22.85
2016-09-12T17:45:28.162Z,22.78
2016-09-12T17:46:19.687Z,22.76
2016-09-12T17:47:25.497Z,22.71
2016-09-12T17:48:24.852Z,22.67
2016-09-12T17:49:22.412Z,22.64
2016-09-12T17:50:23.552Z,22.59
2016-09-12T17:51:22.688Z,22.56
2016-09-12T17:52:25.146Z,22.53
2016-09-12T17:53:25.445Z,22.51
2016-09-12T17:54:25.788Z,22.48
2016-09-12T17:55:25.111Z,22.44
2016-09-12T17:56:23.210Z,22.42
2016-09-12T17:57:26.530Z,22.38
2016-09-12T17:58:28.103Z,22.35
2016-09-12T17:59:26.468Z,22.35
2016-09-12T18:00:23.501Z,22.30
2016-09-12T18:01:28.680Z,22.22
2016-09-12T18:02:25.226Z,22.18
2016-09-12T18:03:26.755Z,22.12
2016-09-12T18:04:13.006Z,22.08
2016-09-12T18:05:24.177Z,22.04
2016-09-12T18:06:23.185Z,22.04
2016-09-12T18:07:22.576Z,21.99
2016-09-12T18:08:11.482Z,21.97
2016-09-12T18:09:23.035Z,21.95
2016-09-12T18:10:23.327Z,21.92
2016-09-12T18:11:25.604Z,21.90
2016-09-12T18:12:22.989Z,21.87
2016-09-12T18:13:23.065Z,21.81
2016-09-12T18:14:25.710Z,21.80
2016-09-12T18:15:28.026Z,21.76
2016-09-12T18:16:28.418Z,21.76
2016-09-12T18:17:22.770Z,21.73
2016-09-12T18:18:21.900Z,21.71
2016-09-12T18:19:25.188Z,21.65
2016-09-12T18:20:22.942Z,21.61
2016-09-12T18:21:12.209Z,21.58
2016-09-12T18:22:13.625Z,21.57
2016-09-12T18:23:25.441Z,21.53
2016-09-12T18:24:25.722Z,21.51
2016-09-12T18:25:22.671Z,21.50
2016-09-12T18:26:19.708Z,21.46
2016-09-12T18:27:26.162Z,21.45
2016-09-12T18:28:11.928Z,21.43
2016-09-12T18:29:25.457Z,21.41
2016-09-12T18:30:19.887Z,21.36
2016-09-12T18:31:22.893Z,21.35
2016-09-12T18:32:21.840Z,21.38
2016-09-12T18:33:22.130Z,21.34
2016-09-12T18:35:22.981Z,21.31
2016-09-12T18:37:25.215Z,21.25
2016-09-12T18:38:25.322Z,21.22
2016-09-12T18:39:12.967Z,21.23
2016-09-12T18:40:22.892Z,21.21
2016-09-12T18:41:12.248Z,21.19
2016-09-12T18:42:12.388Z,21.16
2016-09-12T18:43:28.634Z,21.15
2016-09-12T18:44:22.201Z,21.13
2016-09-12T18:45:23.244Z,21.07
2016-09-12T18:46:25.747Z,21.08
2016-09-12T18:47:22.703Z,21.06
2016-09-12T18:48:23.007Z,21.01
2016-09-12T18:49:26.238Z,21.00
2016-09-12T18:50:22.260Z,20.95
2016-09-12T18:52:24.961Z,20.87
2016-09-12T18:53:15.431Z,20.88
2016-09-12T18:54:16.530Z,20.86
2016-09-12T18:55:19.592Z,20.87
2016-09-12T18:56:11.312Z,20.86
2016-09-12T18:57:13.612Z,20.85
2016-09-12T18:58:25.739Z,20.85
2016-09-12T18:59:12.713Z,20.83
2016-09-12T19:00:23.459Z,20.78
2016-09-12T19:01:11.883Z,20.79
2016-09-12T19:02:24.772Z,20.79
2016-09-12T19:03:11.393Z,20.74
2016-09-12T19:04:20.166Z,20.73
2016-09-12T19:05:22.905Z,20.67
2016-09-12T19:06:12.195Z,20.69
2016-09-12T19:07:13.213Z,20.60
2016-09-12T19:08:26.566Z,20.59
2016-09-12T19:09:23.216Z,20.57
2016-09-12T19:10:26.541Z,20.54
2016-09-12T19:11:28.092Z,20.54
2016-09-12T19:12:24.970Z,20.51
2016-09-12T19:13:22.607Z,20.49
2016-09-12T19:14:25.469Z,20.48
2016-09-12T19:15:22.947Z,20.41
2016-09-12T19:16:25.606Z,20.38
2016-09-12T19:17:28.204Z,20.37
2016-09-12T19:18:23.085Z,20.35
2016-09-12T19:19:22.677Z,20.40
2016-09-12T19:20:23.167Z,20.39
2016-09-12T19:21:25.859Z,20.34
2016-09-12T19:22:13.712Z,20.33
2016-09-12T19:23:11.817Z,20.36
2016-09-12T19:24:23.121Z,20.39
2016-09-12T19:25:11.589Z,20.42
2016-09-12T19:26:22.182Z,20.36
2016-09-12T19:27:23.189Z,20.30
2016-09-12T19:28:12.682Z,20.30
2016-09-12T19:29:22.659Z,20.26
2016-09-12T19:30:11.871Z,20.24
2016-09-12T19:31:18.205Z,20.22
2016-09-12T19:32:12.499Z,20.18
2016-09-12T19:33:11.414Z,20.16
2016-09-12T19:34:07.169Z,20.17
2016-09-12T19:35:13.463Z,20.14
2016-09-12T19:36:13.426Z,20.11
2016-09-12T19:37:13.576Z,20.09
2016-09-12T19:39:25.484Z,20.00
2016-09-12T19:40:22.598Z,19.98
2016-09-12T19:41:28.629Z,19.94
2016-09-12T19:42:12.321Z,20.00
2016-09-12T19:43:12.331Z,19.99
2016-09-12T19:44:13.224Z,19.98
2016-09-12T19:45:12.698Z,19.92
2016-09-12T19:46:12.297Z,19.85
2016-09-12T19:47:17.341Z,19.85
2016-09-12T19:48:22.545Z,19.86
2016-09-12T19:49:12.077Z,19.87
2016-09-12T19:50:12.056Z,19.83
2016-09-12T19:51:28.654Z,19.82